Time;durP1;ratioP1;P1;durP2;ratioP2;P2;SDS_P1;SDS_P2;PMS_P1;PMS_P2;Temp;Humidity;BMP_temperature;BMP_pressure;BME280_temperature;BME280_humidity;BME280_pressure;Samples;Min_cycle;Max_cycle;Signal;HPM_P1;HPM_P2
2023/12/12 00:02:11;;;;;;;2.30;0.40;;;;;;;7.05;100.00;99013.53;107369;1273;23955;-75
2023/12/12 00:05:02;;;;;;;6.00;0.70;;;;;;;7.03;100.00;99019.06;107275;1279;23347;-75
2023/12/12 00:07:55;;;;;;;10.00;1.10;;;;;;;7.01;100.00;99021.71;107149;1279;23717;-76
2023/12/12 00:10:46;;;;;;;5.50;0.60;;;;;;;6.99;100.00;99030.91;107190;1257;24366;-77
2023/12/12 00:13:38;;;;;;;3.90;0.50;;;;;;;6.96;100.00;99027.99;107287;1281;23515;-76
2023/12/12 00:16:29;;;;;;;8.20;0.90;;;;;;;6.94;100.00;99030.13;107330;1274;22542;-75
2023/12/12 00:19:20;;;;;;;3.00;0.60;;;;;;;6.92;100.00;99033.17;107326;1277;25335;-76
2023/12/12 00:22:11;;;;;;;6.50;0.70;;;;;;;6.90;100.00;99038.02;107357;1280;22552;-74
2023/12/12 00:25:03;;;;;;;4.20;0.60;;;;;;;6.89;100.00;99038.38;107335;1273;22566;-74
2023/12/12 00:27:54;;;;;;;3.30;0.70;;;;;;;6.89;100.00;99037.83;107395;1273;24118;-73
2023/12/12 00:30:45;;;;;;;3.60;0.60;;;;;;;6.90;100.00;99046.27;107330;1279;22538;-73
2023/12/12 00:33:36;;;;;;;3.70;0.90;;;;;;;6.90;100.00;99049.26;107311;1274;25285;-74
2023/12/12 00:36:27;;;;;;;4.90;0.60;;;;;;;6.91;100.00;99048.45;107303;1273;22549;-73
2023/12/12 00:39:18;;;;;;;3.30;0.50;;;;;;;6.90;100.00;99050.71;107553;1273;22795;-75
2023/12/12 00:42:09;;;;;;;7.00;0.60;;;;;;;6.89;100.00;99054.47;107381;1279;24253;-77
2023/12/12 00:45:00;;;;;;;5.20;0.60;;;;;;;6.90;100.00;99056.26;107309;1267;22642;-75
2023/12/12 00:47:51;;;;;;;2.50;0.40;;;;;;;6.89;100.00;99062.45;107410;1281;22568;-76
2023/12/12 00:50:43;;;;;;;3.90;0.50;;;;;;;6.90;100.00;99063.71;107637;1281;22540;-77
2023/12/12 00:53:34;;;;;;;7.30;0.50;;;;;;;6.90;100.00;99064.94;108074;1270;22582;-73
2023/12/12 00:56:25;;;;;;;2.00;0.40;;;;;;;6.93;100.00;99068.01;107887;1280;25510;-75
2023/12/12 00:59:16;;;;;;;2.60;0.30;;;;;;;6.94;100.00;99070.74;108023;1277;23350;-75
2023/12/12 01:02:08;;;;;;;4.50;0.60;;;;;;;6.96;100.00;99073.49;108125;1280;23337;-76
2023/12/12 01:04:59;;;;;;;1.70;0.40;;;;;;;6.97;100.00;99082.17;107574;1273;24226;-75
2023/12/12 01:07:50;;;;;;;6.20;0.60;;;;;;;6.97;100.00;99080.73;107467;1265;22596;-77
2023/12/12 01:10:41;;;;;;;2.70;0.40;;;;;;;6.98;100.00;99081.86;108034;1281;22579;-73
2023/12/12 01:13:32;;;;;;;5.40;0.50;;;;;;;6.98;100.00;99088.12;107806;1274;22628;-77
2023/12/12 01:16:24;;;;;;;5.20;0.60;;;;;;;6.99;100.00;99089.89;107769;1279;22551;-74
2023/12/12 01:19:15;;;;;;;2.40;0.40;;;;;;;6.99;100.00;99090.39;108215;1277;23036;-75
2023/12/12 01:22:06;;;;;;;5.70;0.50;;;;;;;6.99;100.00;99094.73;107865;1277;24217;-74
2023/12/12 01:24:57;;;;;;;2.10;0.40;;;;;;;6.99;100.00;99095.80;107907;1274;22575;-75
2023/12/12 01:27:49;;;;;;;1.70;0.40;;;;;;;6.98;100.00;99099.30;107878;1276;22958;-75
2023/12/12 01:30:40;;;;;;;2.90;0.40;;;;;;;6.98;100.00;99103.29;107952;1281;22579;-73
2023/12/12 01:33:30;;;;;;;2.00;0.30;;;;;;;6.98;100.00;99108.84;108139;1257;22648;-75
2023/12/12 01:36:22;;;;;;;4.50;0.40;;;;;;;6.98;100.00;99107.57;108348;1273;22558;-74
2023/12/12 01:39:13;;;;;;;6.60;0.40;;;;;;;6.97;100.00;99111.40;108200;1273;22546;-76
2023/12/12 01:42:04;;;;;;;3.00;0.50;;;;;;;6.97;100.00;99114.58;108289;1279;22566;-75
2023/12/12 01:44:55;;;;;;;2.50;0.30;;;;;;;6.97;100.00;99120.33;108047;1281;22647;-74
2023/12/12 01:47:46;;;;;;;2.90;0.50;;;;;;;6.96;100.00;99119.65;107478;1281;24318;-74
2023/12/12 01:50:37;;;;;;;1.70;0.40;;;;;;;6.96;100.00;99126.16;108150;1281;22588;-75
2023/12/12 01:53:33;;;;;;;3.40;0.40;;;;;;;6.96;100.00;99128.77;108331;1273;22636;-76
2023/12/12 01:56:24;;;;;;;1.20;0.20;;;;;;;6.95;100.00;99127.91;107673;1277;22598;-75
2023/12/12 01:59:15;;;;;;;3.40;0.50;;;;;;;6.95;100.00;99131.65;108342;1280;23356;-75
2023/12/12 02:02:06;;;;;;;4.40;0.40;;;;;;;6.97;100.00;99133.48;108264;1280;25229;-79
2023/12/12 02:04:57;;;;;;;1.30;0.30;;;;;;;6.97;100.00;99134.20;108239;1279;24440;-74
2023/12/12 02:07:50;;;;;;;0.90;0.30;;;;;;;6.97;100.00;99140.05;108093;1280;23834;-75
2023/12/12 02:10:41;;;;;;;2.90;1.50;;;;;;;6.96;100.00;99136.76;108346;1280;24745;-77
2023/12/12 02:13:32;;;;;;;5.00;0.40;;;;;;;6.97;100.00;99140.30;108399;1280;22610;-74
2023/12/12 02:16:23;;;;;;;0.70;0.30;;;;;;;6.96;100.00;99144.52;108032;1277;25340;-75
2023/12/12 02:19:15;;;;;;;3.00;0.40;;;;;;;6.96;100.00;99154.60;108200;1274;22606;-76
2023/12/12 02:22:06;;;;;;;1.10;0.20;;;;;;;6.96;100.00;99148.66;108164;1273;26107;-75
2023/12/12 02:24:57;;;;;;;1.40;0.20;;;;;;;6.96;100.00;99157.13;108175;1280;25220;-73
2023/12/12 02:27:48;;;;;;;3.50;0.30;;;;;;;6.96;100.00;99164.29;108426;1280;23333;-75
2023/12/12 02:30:42;;;;;;;2.20;0.20;;;;;;;6.95;100.00;99168.83;107981;1267;23414;-74
2023/12/12 02:33:33;;;;;;;6.80;0.40;;;;;;;6.95;99.92;99164.74;108291;1280;23637;-74
2023/12/12 02:36:25;;;;;;;1.30;0.20;;;;;;;6.95;99.67;99166.66;108421;1273;22635;-76
2023/12/12 02:39:16;;;;;;;1.30;0.20;;;;;;;6.95;99.73;99170.94;108416;1273;22645;-76
2023/12/12 02:42:08;;;;;;;3.00;0.20;;;;;;;6.95;99.47;99176.80;108405;1280;22682;-77
2023/12/12 02:44:59;;;;;;;1.50;0.20;;;;;;;6.95;99.52;99176.23;108086;1281;23059;-75
2023/12/12 02:47:50;;;;;;;1.20;0.10;;;;;;;6.94;99.49;99181.02;108259;1281;23335;-76
2023/12/12 02:50:41;;;;;;;1.70;0.10;;;;;;;6.94;98.95;99178.28;108163;1281;22686;-75
2023/12/12 02:53:35;;;;;;;1.50;0.20;;;;;;;6.94;98.81;99183.98;108417;1277;22676;-74
2023/12/12 02:56:26;;;;;;;1.30;0.30;;;;;;;6.94;98.94;99194.67;108398;1277;22581;-73
2023/12/12 02:59:17;;;;;;;1.80;0.30;;;;;;;6.94;98.72;99193.11;108375;1277;22565;-73
2023/12/12 03:02:08;;;;;;;1.50;0.20;;;;;;;6.94;98.64;99198.73;108187;1280;22580;-75
2023/12/12 03:04:59;;;;;;;2.10;0.30;;;;;;;6.93;98.70;99203.35;108395;1274;22686;-75
2023/12/12 03:07:51;;;;;;;2.00;0.30;;;;;;;6.93;98.65;99209.30;108137;1269;23023;-73
2023/12/12 03:10:42;;;;;;;5.40;0.40;;;;;;;6.93;98.81;99213.28;108427;1274;22562;-74
2023/12/12 03:13:34;;;;;;;1.80;0.20;;;;;;;6.92;98.62;99213.89;108304;1270;22686;-74
2023/12/12 03:16:26;;;;;;;2.40;0.20;;;;;;;6.92;98.41;99212.86;108346;1277;22579;-75
2023/12/12 03:19:17;;;;;;;3.90;0.30;;;;;;;6.91;98.15;99220.98;108340;1280;23254;-75
2023/12/12 03:22:08;;;;;;;1.80;0.20;;;;;;;6.91;98.12;99220.06;108396;1259;22568;-76
2023/12/12 03:25:00;;;;;;;1.20;0.20;;;;;;;6.91;97.91;99218.30;108361;1280;22607;-74
2023/12/12 03:27:51;;;;;;;0.60;0.20;;;;;;;6.91;97.73;99218.15;108402;1273;22579;-74
2023/12/12 03:30:42;;;;;;;0.70;0.20;;;;;;;6.91;97.89;99224.01;108433;1274;24366;-73
2023/12/12 03:33:33;;;;;;;2.90;0.30;;;;;;;6.92;97.59;99229.51;108388;1273;25453;-74
2023/12/12 03:36:24;;;;;;;2.40;0.50;;;;;;;6.92;97.43;99232.28;108375;1273;22573;-74
2023/12/12 03:39:16;;;;;;;1.60;0.30;;;;;;;6.92;97.39;99237.19;108383;1273;24637;-76
2023/12/12 03:42:07;;;;;;;1.70;0.10;;;;;;;6.92;97.38;99236.48;107848;1274;25494;-79
2023/12/12 03:44:58;;;;;;;0.80;0.20;;;;;;;6.91;97.44;99240.73;108224;1281;24195;-76
2023/12/12 03:47:49;;;;;;;2.50;0.30;;;;;;;6.91;97.55;99239.73;108254;1281;22709;-77
2023/12/12 03:50:41;;;;;;;2.70;0.30;;;;;;;6.90;97.51;99248.00;108228;1281;22580;-75
2023/12/12 03:53:32;;;;;;;2.30;0.30;;;;;;;6.90;97.35;99247.23;107285;1281;24478;-75
2023/12/12 03:56:23;;;;;;;3.30;0.20;;;;;;;6.89;97.17;99255.23;108072;1280;22538;-73
2023/12/12 03:59:14;;;;;;;3.10;0.20;;;;;;;6.88;97.36;99251.69;107067;1273;22541;-73
2023/12/12 04:02:05;;;;;;;0.40;0.10;;;;;;;6.86;97.63;99255.14;107202;1277;25291;-75
2023/12/12 04:04:57;;;;;;;2.60;0.20;;;;;;;6.84;97.62;99256.41;107058;1280;22668;-74
2023/12/12 04:07:48;;;;;;;2.00;0.30;;;;;;;6.82;98.00;99263.03;107074;1280;22662;-73
2023/12/12 04:10:40;;;;;;;2.70;0.30;;;;;;;6.80;97.74;99263.39;107142;1270;23294;-75
2023/12/12 04:13:31;;;;;;;2.90;0.30;;;;;;;6.78;97.72;99261.89;107133;1277;25305;-74
2023/12/12 04:16:22;;;;;;;2.50;0.40;;;;;;;6.76;97.66;99257.63;107081;1281;22517;-73
2023/12/12 04:19:13;;;;;;;2.10;0.10;;;;;;;6.75;97.77;99257.95;107154;1281;22667;-73
2023/12/12 04:22:05;;;;;;;1.60;0.30;;;;;;;6.72;97.54;99259.98;107966;1274;22576;-73
2023/12/12 04:24:56;;;;;;;1.40;0.30;;;;;;;6.71;97.24;99270.44;107204;1281;25479;-73
2023/12/12 04:27:48;;;;;;;2.90;0.30;;;;;;;6.70;96.95;99267.55;107190;1280;24071;-73
2023/12/12 04:30:39;;;;;;;2.30;0.30;;;;;;;6.70;97.11;99274.36;106915;1277;22528;-74
2023/12/12 04:33:30;;;;;;;2.20;0.20;;;;;;;6.69;97.21;99274.59;106895;1273;22569;-76
2023/12/12 04:36:22;;;;;;;1.80;0.20;;;;;;;6.67;97.24;99275.77;106876;1274;22651;-73
2023/12/12 04:39:17;;;;;;;4.00;0.40;;;;;;;6.66;97.33;99276.35;108330;1278;23315;-74
2023/12/12 04:42:08;;;;;;;1.50;0.30;;;;;;;6.63;97.23;99288.66;108303;1273;22610;-75
2023/12/12 04:44:59;;;;;;;1.50;0.30;;;;;;;6.62;97.15;99285.89;106986;1281;24335;-73
2023/12/12 04:47:50;;;;;;;1.70;0.40;;;;;;;6.61;97.19;99291.39;107134;1281;22640;-74
2023/12/12 04:50:42;;;;;;;4.30;0.40;;;;;;;6.60;97.27;99289.34;106927;1267;22575;-75
2023/12/12 04:53:33;;;;;;;2.20;0.40;;;;;;;6.58;97.34;99290.21;106933;1257;23218;-73
2023/12/12 04:56:24;;;;;;;2.90;0.70;;;;;;;6.56;97.53;99296.67;106945;1274;22560;-72
2023/12/12 04:59:15;;;;;;;5.20;0.70;;;;;;;6.53;97.72;99299.61;106993;1274;25339;-73
2023/12/12 05:02:06;;;;;;;6.10;0.60;;;;;;;6.52;97.88;99305.38;107112;1277;25336;-74
2023/12/12 05:04:58;;;;;;;1.50;0.50;;;;;;;6.50;97.99;99306.70;107206;1270;23230;-73
2023/12/12 05:07:49;;;;;;;3.40;0.50;;;;;;;6.49;98.22;99306.42;106895;1274;24331;-73
2023/12/12 05:10:40;;;;;;;7.90;1.20;;;;;;;6.47;98.17;99308.87;106943;1280;24208;-74
2023/12/12 05:13:31;;;;;;;6.00;1.00;;;;;;;6.47;98.22;99318.59;107025;1279;25329;-74
2023/12/12 05:16:22;;;;;;;5.00;1.00;;;;;;;6.46;98.18;99322.90;107049;1274;22533;-73
2023/12/12 05:19:14;;;;;;;5.50;0.80;;;;;;;6.44;98.37;99314.89;107220;1277;22531;-74
2023/12/12 05:22:05;;;;;;;4.40;0.50;;;;;;;6.44;98.30;99317.45;107105;1274;24250;-75
2023/12/12 05:24:56;;;;;;;2.50;0.50;;;;;;;6.43;98.32;99325.86;107172;1273;22593;-73
2023/12/12 05:27:47;;;;;;;7.10;0.70;;;;;;;6.43;98.34;99334.83;107137;1274;22656;-75
2023/12/12 05:30:38;;;;;;;5.30;0.50;;;;;;;6.43;98.36;99335.78;107125;1274;22646;-74
2023/12/12 05:33:29;;;;;;;3.70;0.80;;;;;;;6.44;98.30;99341.36;106968;1277;22686;-74
2023/12/12 05:36:20;;;;;;;3.00;0.60;;;;;;;6.44;98.20;99338.77;107278;1273;22684;-75
2023/12/12 05:39:12;;;;;;;4.00;0.80;;;;;;;6.44;98.10;99340.75;107129;1273;23215;-76
2023/12/12 05:42:03;;;;;;;4.60;0.60;;;;;;;6.43;98.15;99344.02;107134;1281;22642;-76
2023/12/12 05:44:55;;;;;;;4.10;1.50;;;;;;;6.43;98.25;99351.02;107230;1274;22653;-76
2023/12/12 05:47:47;;;;;;;5.00;0.70;;;;;;;6.42;98.27;99356.67;107189;1279;22555;-74
2023/12/12 05:50:38;;;;;;;3.10;0.60;;;;;;;6.41;98.37;99361.86;106985;1277;22565;-74
2023/12/12 05:53:30;;;;;;;4.00;0.80;;;;;;;6.39;98.41;99364.89;107299;1273;22566;-75
2023/12/12 05:56:21;;;;;;;3.40;0.90;;;;;;;6.38;98.40;99365.37;107457;1273;25441;-76
2023/12/12 05:59:14;;;;;;;2.70;0.60;;;;;;;6.36;98.49;99374.56;107478;1277;24630;-75
2023/12/12 06:02:05;;;;;;;5.10;0.70;;;;;;;6.34;98.61;99380.52;107441;1274;22650;-74
2023/12/12 06:04:57;;;;;;;4.00;0.60;;;;;;;6.32;98.71;99386.16;107266;1279;24366;-75
2023/12/12 06:07:48;;;;;;;4.40;0.80;;;;;;;6.31;98.77;99390.57;107232;1277;22666;-74
2023/12/12 06:10:39;;;;;;;4.20;0.90;;;;;;;6.30;98.93;99393.73;107297;1277;22552;-74
2023/12/12 06:13:31;;;;;;;6.40;1.00;;;;;;;6.28;98.99;99399.73;107454;1280;22659;-75
2023/12/12 06:16:22;;;;;;;4.70;0.90;;;;;;;6.27;99.09;99400.70;107486;1281;24201;-75
2023/12/12 06:19:13;;;;;;;6.20;0.90;;;;;;;6.26;99.05;99407.78;107499;1274;25429;-74
2023/12/12 06:22:05;;;;;;;4.30;1.10;;;;;;;6.24;99.11;99413.70;107453;1280;22537;-78
2023/12/12 06:24:56;;;;;;;4.80;0.90;;;;;;;6.23;99.20;99418.60;107356;1280;23353;-73
2023/12/12 06:27:47;;;;;;;7.50;1.10;;;;;;;6.21;99.27;99423.85;107558;1274;22543;-74
2023/12/12 06:30:38;;;;;;;6.80;1.30;;;;;;;6.18;99.37;99424.55;107507;1274;22533;-76
2023/12/12 06:33:29;;;;;;;8.60;1.80;;;;;;;6.16;99.48;99426.34;107497;1273;22997;-74
2023/12/12 06:36:20;;;;;;;4.70;0.90;;;;;;;6.14;99.65;99428.02;107332;1273;22555;-74
2023/12/12 06:39:13;;;;;;;9.10;1.20;;;;;;;6.12;99.81;99436.09;107070;1274;25523;-73
2023/12/12 06:42:04;;;;;;;7.90;1.80;;;;;;;6.10;99.99;99439.73;107376;1275;22558;-75
2023/12/12 06:44:55;;;;;;;6.50;1.20;;;;;;;6.11;100.00;99443.91;107483;1273;23404;-75
2023/12/12 06:47:47;;;;;;;8.70;1.20;;;;;;;6.10;100.00;99444.01;107283;1274;24496;-74
2023/12/12 06:50:38;;;;;;;4.70;1.10;;;;;;;6.10;100.00;99446.58;107159;1278;24368;-74
2023/12/12 06:53:29;;;;;;;10.80;1.30;;;;;;;6.10;100.00;99448.14;107558;1274;22538;-75
2023/12/12 06:56:21;;;;;;;4.10;1.10;;;;;;;6.10;100.00;99454.85;107665;1273;22674;-76
2023/12/12 06:59:11;;;;;;;7.00;1.10;;;;;;;6.10;100.00;99453.83;107806;1279;25224;-74
2023/12/12 07:02:03;;;;;;;6.50;1.30;;;;;;;6.10;100.00;99455.13;107393;1280;22670;-75
2023/12/12 07:04:54;;;;;;;5.20;0.80;;;;;;;6.10;100.00;99458.11;107605;1277;22664;-75
2023/12/12 07:07:45;;;;;;;5.50;1.20;;;;;;;6.10;100.00;99465.31;107481;1280;22706;-74
2023/12/12 07:10:37;;;;;;;7.70;1.30;;;;;;;6.10;100.00;99464.06;107635;1277;24317;-76
2023/12/12 07:13:27;;;;;;;5.10;1.30;;;;;;;6.10;100.00;99466.62;107448;1276;24694;-76
2023/12/12 07:16:20;;;;;;;5.00;1.00;;;;;;;6.10;100.00;99467.63;107620;1281;23005;-75
2023/12/12 07:19:11;;;;;;;4.80;1.30;;;;;;;6.08;100.00;99472.88;107447;1274;23353;-75
2023/12/12 07:22:02;;;;;;;6.10;1.30;;;;;;;6.07;100.00;99478.98;107294;1274;224013;-75
2023/12/12 07:24:54;;;;;;;6.60;1.20;;;;;;;6.07;100.00;99489.05;107394;1280;25510;-75
2023/12/12 07:27:45;;;;;;;6.40;1.40;;;;;;;6.06;100.00;99494.94;107285;1274;22761;-75
2023/12/12 07:30:36;;;;;;;7.20;1.70;;;;;;;6.07;100.00;99497.90;107381;1277;23729;-75
2023/12/12 07:33:27;;;;;;;7.40;1.60;;;;;;;6.09;100.00;99500.27;107176;1273;22577;-76
2023/12/12 07:36:18;;;;;;;6.30;1.50;;;;;;;6.11;100.00;99509.71;107664;1271;22645;-75
2023/12/12 07:39:10;;;;;;;5.60;1.30;;;;;;;6.12;100.00;99510.36;107260;1274;22572;-77
2023/12/12 07:42:01;;;;;;;8.60;1.20;;;;;;;6.14;100.00;99513.67;107356;1280;25292;-75
2023/12/12 07:44:52;;;;;;;8.00;1.00;;;;;;;6.15;100.00;99512.89;108078;1277;22572;-78
2023/12/12 07:47:42;;;;;;;7.40;1.20;;;;;;;6.16;100.00;99518.48;108123;1280;25470;-76
2023/12/12 07:50:33;;;;;;;6.40;1.50;;;;;;;6.18;100.00;99523.30;108278;1280;27136;-75
2023/12/12 07:53:24;;;;;;;10.10;1.50;;;;;;;6.19;100.00;99530.59;108386;1280;25428;-76
2023/12/12 07:56:15;;;;;;;5.60;1.60;;;;;;;6.21;100.00;99534.95;108074;1274;22678;-76
2023/12/12 07:59:06;;;;;;;8.10;1.70;;;;;;;6.21;100.00;99538.80;108380;1274;22571;-77
2023/12/12 08:01:57;;;;;;;6.30;1.40;;;;;;;6.23;100.00;99539.77;108375;1277;22647;-77
2023/12/12 08:04:48;;;;;;;9.40;2.00;;;;;;;6.24;100.00;99544.00;108486;1280;23469;-77
2023/12/12 08:07:39;;;;;;;8.00;1.50;;;;;;;6.25;100.00;99548.15;108420;1280;23205;-75
2023/12/12 08:10:30;;;;;;;8.00;1.30;;;;;;;6.25;100.00;99547.66;108429;1258;22928;-77
2023/12/12 08:13:22;;;;;;;10.40;2.40;;;;;;;6.26;100.00;99547.54;108350;1274;22653;-76
2023/12/12 08:16:13;;;;;;;7.90;1.30;;;;;;;6.26;100.00;99545.08;108292;1277;24480;-76
2023/12/12 08:19:04;;;;;;;7.70;1.40;;;;;;;6.27;100.00;99546.95;108457;1277;22582;-77
2023/12/12 08:21:55;;;;;;;12.20;1.40;;;;;;;6.27;100.00;99545.75;108458;1277;22577;-76
2023/12/12 08:24:50;;;;;;;9.80;2.00;;;;;;;6.28;100.00;99546.11;108153;1274;23105;-76
2023/12/12 08:27:41;;;;;;;6.00;1.50;;;;;;;6.27;100.00;99547.42;108097;1274;22596;-76
2023/12/12 08:30:32;;;;;;;6.80;1.20;;;;;;;6.28;100.00;99548.80;108533;1279;22571;-76
2023/12/12 08:33:24;;;;;;;10.50;1.90;;;;;;;6.29;100.00;99551.39;108111;1275;23697;-78
2023/12/12 08:36:15;;;;;;;7.40;1.50;;;;;;;6.28;100.00;99555.67;108455;1273;23275;-77
2023/12/12 08:39:07;;;;;;;7.60;1.10;;;;;;;6.29;100.00;99556.29;107993;1271;23339;-77
2023/12/12 08:41:58;;;;;;;7.50;1.20;;;;;;;6.29;100.00;99560.22;108269;1280;22699;-76
2023/12/12 08:44:50;;;;;;;7.20;1.50;;;;;;;6.30;100.00;99556.46;108240;1274;22821;-76
2023/12/12 08:47:41;;;;;;;5.90;1.30;;;;;;;6.32;100.00;99554.95;108272;1279;22587;-77
2023/12/12 08:50:32;;;;;;;10.50;1.70;;;;;;;6.35;100.00;99558.80;108197;1274;22681;-77
2023/12/12 08:53:26;;;;;;;5.80;1.40;;;;;;;6.37;100.00;99555.42;108236;1274;24302;-76
2023/12/12 08:56:18;;;;;;;6.90;1.30;;;;;;;6.40;100.00;99553.70;108382;1274;25403;-76
2023/12/12 08:59:09;;;;;;;7.90;1.80;;;;;;;6.42;100.00;99554.14;108549;1279;22680;-76
2023/12/12 09:02:03;;;;;;;6.60;1.20;;;;;;;6.44;100.00;99555.95;107985;1280;22569;-75
2023/12/12 09:04:55;;;;;;;5.30;1.10;;;;;;;6.46;100.00;99558.66;108436;1277;23246;-75
2023/12/12 09:07:46;;;;;;;6.20;1.10;;;;;;;6.46;100.00;99561.40;108289;1273;22568;-76
2023/12/12 09:10:37;;;;;;;10.90;1.20;;;;;;;6.47;99.99;99561.94;108090;1274;22562;-76
2023/12/12 09:13:28;;;;;;;8.50;1.30;;;;;;;6.48;99.94;99558.16;108476;1277;22614;-76
2023/12/12 09:16:19;;;;;;;11.80;1.80;;;;;;;6.49;99.94;99561.21;108394;1274;22580;-76
2023/12/12 09:19:14;;;;;;;11.60;2.10;;;;;;;6.50;99.99;99553.47;108518;1280;22683;-75
2023/12/12 09:22:06;;;;;;;10.70;2.00;;;;;;;6.52;99.81;99557.65;108411;1280;22988;-76
2023/12/12 09:24:57;;;;;;;9.10;1.90;;;;;;;6.54;99.85;99556.91;108410;1276;26018;-75
2023/12/12 09:27:47;;;;;;;9.50;1.20;;;;;;;6.56;99.56;99556.54;108449;1279;25314;-75
2023/12/12 09:30:39;;;;;;;7.60;1.70;;;;;;;6.56;99.28;99556.53;108488;1279;24288;-76
2023/12/12 09:33:30;;;;;;;11.70;2.10;;;;;;;6.57;99.41;99555.81;108452;1273;22615;-75
2023/12/12 09:36:21;;;;;;;10.20;1.90;;;;;;;6.61;99.51;99564.11;108356;1275;23347;-75
2023/12/12 09:39:12;;;;;;;16.20;2.30;;;;;;;6.64;99.42;99559.40;108469;1273;22562;-75
2023/12/12 09:42:12;;;;;;;13.00;2.60;;;;;;;6.66;99.42;99558.09;108505;1277;22702;-77
2023/12/12 09:45:10;;;;;;;12.50;2.30;;;;;;;6.69;99.38;99555.02;108222;1279;22567;-75
2023/12/12 09:48:02;;;;;;;10.30;2.00;;;;;;;6.71;99.39;99551.50;107886;1281;22782;-76
2023/12/12 09:50:56;;;;;;;7.80;1.70;;;;;;;6.74;99.32;99542.42;108391;1281;25969;-75
2023/12/12 09:53:48;;;;;;;13.20;1.90;;;;;;;6.77;99.33;99540.59;108271;1266;22588;-77
2023/12/12 09:56:40;;;;;;;7.80;1.60;;;;;;;6.81;99.13;99540.02;107800;1281;22680;-76
2023/12/12 09:59:31;;;;;;;7.20;1.20;;;;;;;6.84;99.03;99542.33;108316;1274;22678;-75
2023/12/12 10:02:24;;;;;;;8.80;1.30;;;;;;;6.86;98.91;99540.14;108370;1281;23303;-75
2023/12/12 10:05:16;;;;;;;10.80;1.90;;;;;;;6.90;98.89;99543.86;108507;1274;22587;-75
2023/12/12 10:08:08;;;;;;;10.70;1.00;;;;;;;6.93;98.60;99546.75;108562;1271;22610;-75
2023/12/12 10:10:59;;;;;;;5.90;1.00;;;;;;;6.94;98.51;99549.14;108324;1274;23151;-75
2023/12/12 10:13:54;;;;;;;11.00;2.00;;;;;;;6.96;98.72;99548.77;108453;1274;24253;-76
2023/12/12 10:16:46;;;;;;;11.00;2.30;;;;;;;7.00;98.67;99551.44;108370;1274;22619;-75
2023/12/12 10:19:38;;;;;;;12.30;1.80;;;;;;;7.03;98.64;99546.37;108382;1279;22993;-75
2023/12/12 10:22:31;;;;;;;9.10;1.70;;;;;;;7.06;98.53;99544.02;108258;1277;23288;-75
2023/12/12 10:25:22;;;;;;;5.70;1.00;;;;;;;7.09;98.36;99536.61;108138;1274;22542;-76
2023/12/12 10:28:14;;;;;;;6.20;1.10;;;;;;;7.12;98.04;99533.23;108355;1278;22601;-76
2023/12/12 10:31:07;;;;;;;8.80;2.00;;;;;;;7.15;98.06;99539.32;108403;1279;22631;-76
2023/12/12 10:33:58;;;;;;;8.80;1.50;;;;;;;7.19;97.84;99539.06;108415;1278;22568;-75
2023/12/12 10:36:50;;;;;;;8.80;1.20;;;;;;;7.23;97.82;99541.40;108497;1277;23181;-75
2023/12/12 10:39:43;;;;;;;11.70;1.60;;;;;;;7.26;97.57;99544.40;108289;1270;22656;-76
2023/12/12 10:42:35;;;;;;;11.90;1.40;;;;;;;7.30;97.66;99547.36;108460;1278;22558;-74
2023/12/12 10:45:29;;;;;;;6.90;1.20;;;;;;;7.35;97.54;99544.77;108386;1277;23254;-76
2023/12/12 10:48:22;;;;;;;6.10;1.20;;;;;;;7.39;97.24;99550.67;108536;1274;22621;-75
2023/12/12 10:51:14;;;;;;;8.50;1.60;;;;;;;7.42;97.04;99550.92;108343;1275;23032;-75
2023/12/12 10:54:07;;;;;;;5.80;1.10;;;;;;;7.44;96.76;99549.91;108494;1280;22624;-76
2023/12/12 10:57:00;;;;;;;8.90;1.40;;;;;;;7.47;96.77;99550.27;108121;1282;25342;-75
2023/12/12 10:59:52;;;;;;;11.20;2.10;;;;;;;7.50;96.49;99554.66;108374;1281;22641;-75
2023/12/12 11:02:45;;;;;;;9.80;2.00;;;;;;;7.50;96.11;99560.64;108292;1281;23232;-76
2023/12/12 11:05:36;;;;;;;5.70;1.40;;;;;;;7.51;95.72;99555.95;108354;1282;22589;-75
2023/12/12 11:08:29;;;;;;;5.90;0.90;;;;;;;7.51;95.52;99559.80;108324;1280;23073;-75
2023/12/12 11:11:21;;;;;;;4.70;0.70;;;;;;;7.52;95.14;99561.02;108469;1277;22663;-75
2023/12/12 11:14:13;;;;;;;3.80;0.70;;;;;;;7.53;94.94;99563.21;108271;1279;22674;-76
2023/12/12 11:17:09;;;;;;;3.30;0.80;;;;;;;7.52;94.76;99565.38;108470;1274;22571;-75
2023/12/12 11:20:09;;;;;;;4.00;0.80;;;;;;;7.53;94.71;99558.46;108339;1267;23404;-75
2023/12/12 11:23:03;;;;;;;5.20;0.70;;;;;;;7.56;94.92;99559.58;108423;1278;22625;-75
2023/12/12 11:25:56;;;;;;;5.90;0.90;;;;;;;7.59;95.14;99557.18;108347;1277;22575;-75
2023/12/12 11:28:48;;;;;;;4.20;0.80;;;;;;;7.64;95.12;99555.57;108457;1277;25332;-75
2023/12/12 11:31:56;;;;;;;5.80;0.70;;;;;;;7.66;94.80;99559.09;108403;1277;25472;-78
2023/12/12 11:34:49;;;;;;;4.10;0.50;;;;;;;7.68;93.82;99560.52;108304;1277;22552;-75
2023/12/12 11:37:47;;;;;;;7.20;0.70;;;;;;;7.69;93.91;99561.02;108304;1273;22671;-76
2023/12/12 11:40:38;;;;;;;3.50;0.40;;;;;;;7.71;93.20;99562.42;108492;1275;22599;-75
2023/12/12 11:43:31;;;;;;;3.60;0.70;;;;;;;7.71;92.84;99560.36;108382;1277;24175;-75
2023/12/12 11:46:26;;;;;;;7.50;0.70;;;;;;;7.73;93.11;99559.94;108348;1275;23559;-76
2023/12/12 11:49:26;;;;;;;5.50;0.60;;;;;;;7.77;93.22;99556.97;108119;1275;25229;-75
2023/12/12 11:52:49;;;;;;;3.90;0.60;;;;;;;7.78;92.21;99557.54;108078;1280;22571;-75
2023/12/12 11:55:42;;;;;;;3.60;0.60;;;;;;;7.78;92.02;99551.19;108458;1277;23129;-75
2023/12/12 11:58:34;;;;;;;9.70;1.10;;;;;;;7.79;92.20;99546.85;108064;1278;23461;-74
2023/12/12 12:01:26;;;;;;;2.30;0.50;;;;;;;7.80;92.23;99545.27;108252;1280;22557;-76
2023/12/12 12:04:17;;;;;;;3.30;0.50;;;;;;;7.82;91.89;99540.19;107899;1268;22646;-75
2023/12/12 12:07:08;;;;;;;6.00;1.00;;;;;;;7.81;91.64;99534.71;108434;1277;22568;-75
2023/12/12 12:10:00;;;;;;;4.70;0.70;;;;;;;7.82;91.73;99530.20;108230;1274;22569;-75
2023/12/12 12:12:55;;;;;;;6.70;0.80;;;;;;;7.83;91.84;99526.58;108271;1275;26104;-75
2023/12/12 12:15:50;;;;;;;4.10;0.60;;;;;;;7.85;91.67;99527.38;107842;1273;22572;-76
2023/12/12 12:18:42;;;;;;;4.30;0.70;;;;;;;7.86;91.68;99525.82;108360;1277;25274;-75
2023/12/12 12:21:33;;;;;;;4.10;0.60;;;;;;;7.87;91.65;99523.15;108314;1277;22611;-76
2023/12/12 12:24:24;;;;;;;3.70;0.80;;;;;;;7.90;91.89;99516.20;108355;1274;26083;-75
2023/12/12 12:27:15;;;;;;;3.60;0.70;;;;;;;7.91;91.73;99514.53;108582;1273;23438;-74
2023/12/12 12:30:08;;;;;;;4.20;0.70;;;;;;;7.92;91.41;99509.15;108554;1274;23039;-77
2023/12/12 12:33:04;;;;;;;7.50;0.70;;;;;;;7.90;91.25;99505.83;108206;1277;25244;-75
2023/12/12 12:35:55;;;;;;;5.50;0.70;;;;;;;7.88;91.13;99502.36;108322;1270;22575;-76
2023/12/12 12:38:47;;;;;;;7.00;0.70;;;;;;;7.82;90.42;99499.34;108410;1279;22624;-75
2023/12/12 12:41:39;;;;;;;3.20;0.50;;;;;;;7.77;90.12;99499.39;108450;1277;22646;-75
2023/12/12 12:44:37;;;;;;;5.40;0.50;;;;;;;7.72;89.76;99497.52;108476;1275;22600;-75
2023/12/12 12:47:28;;;;;;;4.00;0.60;;;;;;;7.65;89.46;99502.59;108327;1279;22641;-75
2023/12/12 12:50:19;;;;;;;4.50;0.60;;;;;;;7.60;89.61;99506.74;108418;1279;23034;-74
2023/12/12 12:53:11;;;;;;;5.30;0.80;;;;;;;7.55;89.19;99506.66;108352;1277;24406;-75
2023/12/12 12:56:02;;;;;;;7.10;0.90;;;;;;;7.51;89.38;99515.55;108492;1281;22718;-75
2023/12/12 12:58:53;;;;;;;7.90;0.90;;;;;;;7.48;89.34;99514.27;108512;1276;22543;-75
2023/12/12 13:01:44;;;;;;;4.50;0.60;;;;;;;7.45;89.12;99511.65;107768;1280;23031;-76
2023/12/12 13:04:35;;;;;;;2.50;0.60;;;;;;;7.42;89.19;99515.08;108329;1276;23330;-75
2023/12/12 13:07:26;;;;;;;4.40;0.60;;;;;;;7.39;89.15;99509.77;108092;1265;23466;-76
2023/12/12 13:10:17;;;;;;;2.90;0.50;;;;;;;7.35;89.09;99509.54;108503;1276;25352;-75
2023/12/12 13:13:08;;;;;;;6.60;0.80;;;;;;;7.31;88.81;99510.45;108019;1273;23170;-76
2023/12/12 13:15:59;;;;;;;8.80;0.80;;;;;;;7.27;89.00;99508.61;108449;1276;22705;-76
2023/12/12 13:18:50;;;;;;;7.70;1.10;;;;;;;7.24;89.06;99506.84;108087;1280;22527;-76
2023/12/12 13:21:42;;;;;;;6.40;1.10;;;;;;;7.23;89.10;99500.80;108167;1279;22567;-76
2023/12/12 13:24:34;;;;;;;5.10;1.50;;;;;;;7.23;89.09;99499.05;108408;1275;22570;-75